Time;durP1;ratioP1;P1;durP2;ratioP2;P2;SDS_P1;SDS_P2;PMS_P1;PMS_P2;Temp;Humidity;BMP_temperature;BMP_pressure;BME280_temperature;BME280_humidity;BME280_pressure;Samples;Min_cycle;Max_cycle;Signal;HPM_P1;HPM_P2
2021/12/04 00:00:40;;;;;;;21.63;16.17;;;5.30;99.90;;;;;;5045918;28;20204;-73
2021/12/04 00:03:07;;;;;;;20.70;16.02;;;5.30;99.90;;;;;;5050131;28;20220;-74
2021/12/04 00:05:34;;;;;;;20.02;15.38;;;5.30;99.90;;;;;;5059158;28;20247;-74
2021/12/04 00:08:01;;;;;;;23.27;16.48;;;5.30;99.90;;;;;;5055318;28;20207;-76
2021/12/04 00:10:30;;;;;;;19.70;15.13;;;5.30;99.90;;;;;;5051686;28;20201;-75
2021/12/04 00:12:58;;;;;;;21.98;16.77;;;5.30;99.90;;;;;;5050420;28;20254;-75
2021/12/04 00:15:26;;;;;;;22.67;17.13;;;5.30;99.90;;;;;;5046960;28;20282;-74
2021/12/04 00:17:56;;;;;;;21.98;17.52;;;5.30;99.90;;;;;;5055786;28;20206;-76
2021/12/04 00:20:24;;;;;;;23.92;18.38;;;5.30;99.90;;;;;;5048831;28;20284;-74
2021/12/04 00:22:56;;;;;;;26.70;18.40;;;5.30;99.90;;;;;;5052363;28;20227;-74
2021/12/04 00:25:23;;;;;;;26.45;19.40;;;5.30;99.90;;;;;;5055445;28;20211;-74
2021/12/04 00:27:50;;;;;;;26.27;20.60;;;5.40;99.90;;;;;;5055786;28;20204;-74
2021/12/04 00:30:17;;;;;;;27.60;18.63;;;5.40;99.90;;;;;;5060172;28;20290;-73
2021/12/04 00:32:54;;;;;;;23.50;18.42;;;5.30;99.90;;;;;;5053605;28;20303;-74
2021/12/04 00:35:32;;;;;;;27.60;21.20;;;5.30;99.90;;;;;;5054450;28;20199;-74
2021/12/04 00:49:06;;;;;;;29.65;20.90;;;5.30;99.90;;;;;;5047607;28;20242;-74
2021/12/04 00:49:12;;;;;;;25.73;19.75;;;5.30;99.90;;;;;;5014763;28;20200;-74
2021/12/04 00:51:42;;;;;;;24.75;19.40;;;5.30;99.90;;;;;;5054510;28;20199;-74
2021/12/04 00:54:12;;;;;;;31.15;21.80;;;5.40;99.90;;;;;;5053036;28;20196;-74
2021/12/04 00:56:40;;;;;;;30.52;21.45;;;5.50;99.90;;;;;;5042088;28;20211;-74
2021/12/04 00:59:07;;;;;;;27.50;21.08;;;5.40;99.90;;;;;;5062624;28;20231;-74
2021/12/04 01:01:34;;;;;;;27.13;20.48;;;5.40;99.90;;;;;;5059827;28;21985;-74
2021/12/04 01:04:01;;;;;;;29.10;20.60;;;5.50;99.90;;;;;;5061758;28;20253;-74
2021/12/04 01:06:29;;;;;;;29.95;21.30;;;5.40;99.90;;;;;;5057323;28;20195;-74
2021/12/04 01:08:56;;;;;;;29.63;22.48;;;5.50;99.90;;;;;;5048675;28;20196;-74
2021/12/04 01:11:23;;;;;;;29.50;23.42;;;5.50;99.90;;;;;;5049461;28;20235;-74
2021/12/04 01:13:50;;;;;;;28.75;20.75;;;5.60;99.90;;;;;;5046010;28;20225;-74
2021/12/04 01:16:17;;;;;;;29.35;21.73;;;5.50;99.90;;;;;;5050007;28;20279;-74
2021/12/04 01:18:44;;;;;;;29.65;21.88;;;5.60;99.90;;;;;;5047610;28;20201;-75
2021/12/04 01:21:11;;;;;;;34.10;22.73;;;5.50;99.90;;;;;;5049480;28;20292;-74
2021/12/04 01:23:40;;;;;;;33.30;21.65;;;5.50;99.90;;;;;;5046007;28;20222;-74
2021/12/04 01:26:07;;;;;;;36.72;24.10;;;5.50;99.90;;;;;;5055528;28;20230;-74
2021/12/04 01:28:34;;;;;;;32.60;24.50;;;5.50;99.90;;;;;;5051765;28;20291;-74
2021/12/04 01:31:01;;;;;;;33.60;23.67;;;5.50;99.90;;;;;;5050070;28;20286;-74
2021/12/04 01:33:28;;;;;;;32.83;25.02;;;5.50;99.90;;;;;;5045447;28;20224;-73
2021/12/04 01:35:55;;;;;;;38.28;26.90;;;5.40;99.90;;;;;;5052542;28;20200;-74
2021/12/04 01:38:23;;;;;;;33.13;23.13;;;5.40;99.90;;;;;;5052423;28;20669;-74
2021/12/04 01:40:51;;;;;;;40.33;27.30;;;5.50;99.90;;;;;;5051480;28;20202;-74
2021/12/04 01:43:19;;;;;;;38.88;25.48;;;5.40;99.90;;;;;;5049408;28;20223;-74
2021/12/04 01:45:46;;;;;;;32.30;22.88;;;5.40;99.90;;;;;;5048505;28;20218;-74
2021/12/04 01:48:14;;;;;;;36.72;24.98;;;5.40;99.90;;;;;;5053227;28;20196;-74
2021/12/04 01:50:41;;;;;;;36.38;26.95;;;5.40;99.90;;;;;;5048140;28;20211;-74
2021/12/04 01:53:08;;;;;;;38.47;27.58;;;5.40;99.90;;;;;;5055269;28;21010;-74
2021/12/04 01:55:37;;;;;;;36.85;25.02;;;5.40;99.90;;;;;;5054150;28;20246;-74
2021/12/04 01:58:06;;;;;;;41.60;28.77;;;5.40;99.90;;;;;;5048292;28;20283;-74
2021/12/04 02:00:37;;;;;;;35.78;25.65;;;5.40;99.90;;;;;;5050313;28;20204;-74
2021/12/04 02:03:08;;;;;;;39.47;28.08;;;5.40;99.90;;;;;;5049309;28;20226;-74
2021/12/04 02:05:37;;;;;;;36.13;24.45;;;5.40;99.90;;;;;;5050004;28;20216;-74
2021/12/04 02:08:05;;;;;;;39.80;26.73;;;5.30;99.90;;;;;;5054518;28;20200;-74
2021/12/04 02:10:32;;;;;;;34.83;25.65;;;5.40;99.90;;;;;;5051922;28;20216;-74
2021/12/04 02:12:59;;;;;;;40.50;27.33;;;5.40;99.90;;;;;;5049042;28;20298;-74
2021/12/04 02:15:28;;;;;;;32.60;23.77;;;5.50;99.90;;;;;;5044741;28;20295;-74
2021/12/04 02:17:55;;;;;;;34.70;24.42;;;5.40;99.90;;;;;;5053983;28;20253;-74
2021/12/04 02:20:25;;;;;;;32.78;22.88;;;5.40;99.90;;;;;;5047234;28;20204;-74
2021/12/04 02:22:52;;;;;;;32.92;22.63;;;5.40;99.90;;;;;;5053929;28;20241;-74
2021/12/04 02:25:20;;;;;;;37.70;25.65;;;5.40;99.90;;;;;;5045391;28;20208;-74
2021/12/04 02:27:48;;;;;;;38.17;26.90;;;5.40;99.90;;;;;;5044484;28;20202;-73
2021/12/04 02:30:18;;;;;;;36.08;25.38;;;5.40;99.90;;;;;;5049420;28;20285;-74
2021/12/04 02:32:45;;;;;;;33.20;23.30;;;5.40;99.90;;;;;;5047460;28;20306;-74
2021/12/04 02:35:16;;;;;;;34.42;24.60;;;5.40;99.90;;;;;;5051904;28;20207;-74
2021/12/04 02:37:45;;;;;;;34.13;23.50;;;5.50;99.90;;;;;;5055950;28;20632;-74
2021/12/04 02:40:16;;;;;;;33.33;24.55;;;5.50;99.90;;;;;;5056759;28;20214;-74
2021/12/04 02:42:44;;;;;;;29.17;21.42;;;5.50;99.90;;;;;;5045440;28;20310;-74
2021/12/04 02:45:12;;;;;;;36.03;23.90;;;5.60;99.90;;;;;;5054365;28;20546;-73
2021/12/04 02:47:39;;;;;;;28.02;22.38;;;5.50;99.90;;;;;;5062367;28;20300;-74
2021/12/04 02:50:10;;;;;;;33.53;23.38;;;5.60;99.90;;;;;;5048489;28;20206;-74
2021/12/04 02:52:38;;;;;;;31.00;23.85;;;5.60;99.90;;;;;;5053141;28;20254;-74
2021/12/04 02:55:08;;;;;;;31.92;23.05;;;5.60;99.90;;;;;;5052611;28;20260;-76
2021/12/04 02:57:40;;;;;;;36.33;24.95;;;5.50;99.90;;;;;;5067382;28;20692;-75
2021/12/04 03:00:08;;;;;;;31.52;23.92;;;5.50;99.90;;;;;;5054697;28;20202;-74
2021/12/04 03:02:35;;;;;;;35.22;25.65;;;5.60;99.90;;;;;;5058978;28;20223;-75
2021/12/04 03:05:06;;;;;;;30.92;22.48;;;5.60;99.90;;;;;;5052613;28;20221;-74
2021/12/04 03:07:33;;;;;;;32.22;23.73;;;5.70;99.90;;;;;;5051341;28;20632;-74
2021/12/04 03:10:01;;;;;;;32.67;23.65;;;5.70;99.90;;;;;;5054699;28;20214;-74
2021/12/04 03:12:30;;;;;;;36.25;24.15;;;5.70;99.90;;;;;;5052027;28;20228;-74
2021/12/04 03:14:57;;;;;;;30.75;24.40;;;5.70;99.90;;;;;;5066286;28;20198;-74
2021/12/04 03:17:25;;;;;;;27.85;21.50;;;5.80;99.90;;;;;;5063015;28;20229;-74
2021/12/04 03:19:53;;;;;;;26.85;21.92;;;5.80;99.90;;;;;;5058946;28;20201;-74
2021/12/04 03:22:22;;;;;;;26.30;22.30;;;5.90;99.90;;;;;;5059319;28;20312;-74
2021/12/04 03:24:50;;;;;;;29.23;22.55;;;5.90;99.90;;;;;;5047396;28;20213;-74
2021/12/04 03:27:18;;;;;;;28.70;21.80;;;5.80;99.90;;;;;;5043891;28;20715;-74
2021/12/04 03:29:53;;;;;;;26.80;22.90;;;5.80;99.90;;;;;;5052696;28;20203;-75
2021/12/04 03:35:25;;;;;;;31.02;21.08;;;5.90;99.90;;;;;;5118478;27;20578;-74
2021/12/04 03:40:50;;;;;;;32.08;22.75;;;5.80;99.90;;;;;;5092409;28;20252;-74
2021/12/04 03:43:17;;;;;;;28.63;22.67;;;5.70;99.90;;;;;;5091195;28;20322;-74
2021/12/04 03:45:46;;;;;;;32.17;25.23;;;5.70;99.90;;;;;;5093759;28;20234;-75
2021/12/04 03:48:28;;;;;;;32.97;22.50;;;5.60;99.90;;;;;;5098361;28;20642;-74
2021/12/04 03:50:57;;;;;;;31.83;22.08;;;5.60;99.90;;;;;;5090000;28;20640;-74
2021/12/04 03:53:24;;;;;;;38.63;23.90;;;5.50;99.90;;;;;;5105421;28;20648;-75
2021/12/04 03:55:51;;;;;;;31.05;23.30;;;5.60;99.90;;;;;;5083995;28;20237;-74
2021/12/04 03:58:18;;;;;;;34.15;23.45;;;5.60;99.90;;;;;;5090732;28;20241;-74
2021/12/04 04:00:46;;;;;;;30.83;23.27;;;5.60;99.90;;;;;;5091342;28;20202;-74
2021/12/04 04:03:13;;;;;;;33.55;22.35;;;5.60;99.90;;;;;;5086315;28;20306;-74
2021/12/04 04:05:39;;;;;;;31.15;23.35;;;5.50;99.90;;;;;;5086071;28;20315;-75
2021/12/04 04:08:10;;;;;;;36.90;24.45;;;5.50;99.90;;;;;;5086794;28;20251;-74
2021/12/04 04:10:37;;;;;;;27.10;22.42;;;5.60;99.90;;;;;;5087278;28;20198;-75
2021/12/04 04:13:07;;;;;;;29.08;22.98;;;5.70;99.90;;;;;;5103238;28;20244;-74
2021/12/04 04:15:35;;;;;;;37.22;26.95;;;5.70;99.90;;;;;;5099999;28;20712;-74
2021/12/04 04:18:02;;;;;;;34.28;24.98;;;5.60;99.90;;;;;;5098884;28;20198;-74
2021/12/04 04:20:29;;;;;;;33.72;23.33;;;5.60;99.90;;;;;;5099368;28;20631;-73
2021/12/04 04:22:56;;;;;;;31.55;23.15;;;5.60;99.90;;;;;;5098094;28;20280;-74
2021/12/04 04:25:25;;;;;;;32.72;22.73;;;5.70;99.90;;;;;;5093902;28;20194;-75
2021/12/04 04:27:52;;;;;;;34.58;24.63;;;5.70;99.90;;;;;;5082598;28;20196;-74
2021/12/04 04:30:20;;;;;;;31.90;24.20;;;5.70;99.90;;;;;;5097960;28;20230;-74
2021/12/04 04:32:49;;;;;;;34.10;25.98;;;5.70;99.90;;;;;;5099281;28;20223;-74
2021/12/04 04:35:18;;;;;;;30.65;24.63;;;5.70;99.90;;;;;;5108790;28;20313;-74
2021/12/04 04:37:51;;;;;;;32.15;23.27;;;5.70;99.90;;;;;;5096984;28;20199;-74
2021/12/04 04:59:38;;;;;;;41.28;26.65;;;5.80;99.90;;;;;;5064880;28;20290;-73
2021/12/04 05:10:38;;;;;;;35.55;25.52;;;5.60;99.90;;;;;;5062258;28;20203;-74
2021/12/04 05:13:07;;;;;;;37.47;25.33;;;5.70;99.90;;;;;;5072700;28;20281;-74
2021/12/04 05:15:40;;;;;;;35.35;24.15;;;5.70;99.90;;;;;;5075636;28;20640;-74
2021/12/04 05:18:17;;;;;;;33.35;22.95;;;5.60;99.90;;;;;;5075760;28;20208;-74
2021/12/04 05:20:49;;;;;;;37.42;25.60;;;5.60;99.90;;;;;;5071782;28;20265;-74
2021/12/04 05:23:16;;;;;;;42.72;27.40;;;5.60;99.90;;;;;;5079474;28;20746;-74
2021/12/04 05:25:43;;;;;;;36.05;25.05;;;5.70;99.90;;;;;;5077906;28;20200;-74
2021/12/04 05:28:11;;;;;;;31.73;22.40;;;5.60;99.90;;;;;;5075889;28;20214;-74
2021/12/04 05:30:39;;;;;;;38.97;27.38;;;5.70;99.90;;;;;;5075273;28;20281;-74
2021/12/04 05:33:07;;;;;;;33.90;24.33;;;5.70;99.90;;;;;;5075145;28;20229;-74
2021/12/04 05:35:34;;;;;;;35.33;23.13;;;5.70;99.90;;;;;;5075326;28;20223;-74
2021/12/04 05:38:01;;;;;;;37.45;27.25;;;5.70;99.90;;;;;;5075323;28;20306;-74
2021/12/04 05:40:28;;;;;;;38.10;25.52;;;5.70;99.90;;;;;;5074718;28;20188;-74
2021/12/04 05:43:00;;;;;;;37.50;25.13;;;5.60;99.90;;;;;;5075138;28;20227;-74
2021/12/04 05:45:27;;;;;;;37.25;25.65;;;5.70;99.90;;;;;;5075244;28;20212;-73
2021/12/04 05:48:01;;;;;;;42.05;24.45;;;5.70;99.90;;;;;;5074893;28;20619;-74
2021/12/04 05:50:43;;;;;;;38.83;26.40;;;5.60;99.90;;;;;;5074451;28;20257;-74
2021/12/04 05:53:19;;;;;;;42.00;24.45;;;5.70;99.90;;;;;;5074868;28;20599;-74
2021/12/04 05:55:53;;;;;;;41.22;26.10;;;5.60;99.90;;;;;;5058368;28;20202;-74
2021/12/04 05:58:25;;;;;;;40.55;28.05;;;5.70;99.90;;;;;;5072573;28;20204;-73
2021/12/04 06:00:52;;;;;;;40.65;24.20;;;5.70;99.90;;;;;;5072675;28;20195;-74
2021/12/04 06:03:21;;;;;;;44.55;27.52;;;5.60;99.90;;;;;;5079322;28;20250;-75
2021/12/04 06:05:48;;;;;;;40.55;27.25;;;5.60;99.90;;;;;;5077025;28;20199;-75
2021/12/04 06:08:15;;;;;;;47.13;27.80;;;5.60;99.90;;;;;;5094206;28;20208;-75
2021/12/04 06:10:42;;;;;;;38.58;25.80;;;5.60;99.90;;;;;;5079478;28;20195;-75
2021/12/04 06:13:08;;;;;;;47.63;28.90;;;5.70;99.90;;;;;;5074427;28;20735;-74
2021/12/04 06:15:36;;;;;;;42.08;25.50;;;5.70;99.90;;;;;;5080463;28;20205;-75
2021/12/04 06:18:03;;;;;;;38.33;25.88;;;5.90;99.90;;;;;;5088259;28;20553;-75
2021/12/04 06:23:16;;;;;;;40.58;25.00;;;5.70;99.90;;;;;;5074732;28;20364;-74
2021/12/04 06:25:44;;;;;;;43.97;27.65;;;5.80;99.90;;;;;;5078736;28;20235;-75
2021/12/04 06:28:11;;;;;;;39.15;24.88;;;5.90;99.90;;;;;;5078301;28;20235;-74
2021/12/04 06:30:41;;;;;;;37.10;24.67;;;6.00;99.90;;;;;;5083712;28;20667;-74
2021/12/04 06:33:10;;;;;;;39.13;26.52;;;5.90;99.90;;;;;;5082543;28;20310;-74
2021/12/04 06:35:40;;;;;;;42.22;26.63;;;5.90;99.90;;;;;;5086501;28;20215;-74
2021/12/04 06:38:08;;;;;;;39.63;26.90;;;5.80;99.90;;;;;;5085141;28;20207;-75
2021/12/04 06:40:36;;;;;;;37.10;23.98;;;5.80;99.90;;;;;;5077360;28;20193;-74
2021/12/04 06:43:05;;;;;;;40.80;24.67;;;5.70;99.90;;;;;;5082842;28;20244;-74
2021/12/04 06:45:34;;;;;;;40.42;26.40;;;5.80;99.90;;;;;;5089174;28;20207;-74
2021/12/04 06:48:05;;;;;;;37.53;25.13;;;5.80;99.90;;;;;;5072320;28;20257;-74
2021/12/04 06:50:39;;;;;;;40.92;29.05;;;5.80;99.90;;;;;;5080066;28;20199;-74
2021/12/04 06:53:15;;;;;;;34.67;24.88;;;5.90;99.90;;;;;;5073104;28;20225;-74
2021/12/04 06:55:45;;;;;;;38.15;24.52;;;5.90;99.90;;;;;;5072648;28;20222;-75
2021/12/04 06:58:13;;;;;;;36.22;24.13;;;5.80;99.90;;;;;;5085664;28;20201;-74
2021/12/04 07:00:40;;;;;;;30.83;23.25;;;5.80;99.90;;;;;;5067448;28;20250;-74
2021/12/04 07:03:08;;;;;;;33.50;24.50;;;5.90;99.90;;;;;;5074679;28;20261;-75
2021/12/04 07:05:35;;;;;;;32.10;22.73;;;6.00;99.90;;;;;;5085926;28;20249;-74
2021/12/04 07:08:04;;;;;;;29.92;21.75;;;5.90;99.90;;;;;;5084120;28;20697;-73
2021/12/04 07:10:33;;;;;;;32.88;22.95;;;5.80;99.90;;;;;;5076813;28;20208;-73
2021/12/04 07:13:00;;;;;;;33.38;23.52;;;5.80;99.90;;;;;;5078550;28;20220;-74
2021/12/04 07:15:29;;;;;;;34.88;24.38;;;5.90;99.90;;;;;;5082724;28;20310;-73
2021/12/04 07:17:57;;;;;;;34.95;22.52;;;5.90;99.90;;;;;;5074453;28;20234;-74
2021/12/04 07:20:24;;;;;;;33.47;22.77;;;5.80;99.90;;;;;;5079702;28;20255;-73
2021/12/04 07:22:51;;;;;;;31.88;21.80;;;5.80;99.90;;;;;;5066970;28;20262;-73
2021/12/04 07:25:19;;;;;;;35.03;23.58;;;5.80;99.90;;;;;;5071556;28;20303;-73
2021/12/04 07:27:50;;;;;;;27.88;19.75;;;5.70;99.90;;;;;;5080241;28;20198;-73
2021/12/04 07:30:17;;;;;;;30.55;22.23;;;5.70;99.90;;;;;;5084885;28;20210;-74
2021/12/04 07:32:44;;;;;;;32.50;19.83;;;5.90;99.90;;;;;;5065172;28;20306;-73
2021/12/04 07:35:13;;;;;;;27.10;20.13;;;5.80;99.90;;;;;;5079569;28;20313;-74
2021/12/04 07:37:40;;;;;;;35.75;22.27;;;5.90;99.90;;;;;;5077058;28;20229;-74
2021/12/04 07:40:08;;;;;;;27.98;20.40;;;5.70;99.90;;;;;;5080226;28;20307;-74
2021/12/04 07:42:35;;;;;;;27.27;17.75;;;5.70;99.90;;;;;;5080769;28;20223;-75
2021/12/04 07:45:04;;;;;;;33.80;20.80;;;5.70;99.90;;;;;;5073430;28;20237;-74
2021/12/04 07:47:31;;;;;;;24.75;19.13;;;5.60;99.90;;;;;;5083349;28;20196;-74
2021/12/04 07:49:58;;;;;;;28.58;18.90;;;5.70;99.90;;;;;;5079372;28;20269;-75
2021/12/04 07:52:25;;;;;;;33.20;21.88;;;5.70;99.90;;;;;;5078589;28;20614;-71
2021/12/04 07:54:52;;;;;;;29.35;20.42;;;5.70;99.90;;;;;;5076128;28;20235;-72
2021/12/04 07:57:20;;;;;;;27.40;19.17;;;5.60;99.90;;;;;;5075642;28;20670;-71
2021/12/04 07:59:47;;;;;;;30.83;21.48;;;5.60;99.90;;;;;;5072039;28;20278;-73
2021/12/04 08:02:16;;;;;;;30.35;18.67;;;5.60;99.90;;;;;;5067910;28;20765;-74
2021/12/04 08:04:43;;;;;;;26.17;19.90;;;5.70;99.90;;;;;;5069519;28;20540;-73
2021/12/04 08:07:10;;;;;;;29.48;20.67;;;5.70;99.90;;;;;;5053807;28;20335;-74
2021/12/04 08:09:37;;;;;;;29.38;18.25;;;5.60;99.90;;;;;;5071737;28;20283;-74
2021/12/04 08:12:07;;;;;;;28.02;18.50;;;5.60;99.90;;;;;;5069766;28;20231;-74
2021/12/04 08:14:34;;;;;;;30.98;20.25;;;5.70;99.90;;;;;;5066928;28;20219;-74
2021/12/04 08:17:01;;;;;;;29.27;19.67;;;5.70;99.90;;;;;;5071047;28;20342;-74
2021/12/04 08:19:29;;;;;;;24.95;18.00;;;5.70;99.90;;;;;;5057532;28;20290;-74
2021/12/04 08:21:56;;;;;;;22.65;16.77;;;5.90;99.90;;;;;;5069139;28;20220;-74
2021/12/04 08:24:23;;;;;;;28.38;19.73;;;6.30;99.90;;;;;;5076958;28;20304;-73
2021/12/04 08:26:50;;;;;;;26.35;18.58;;;6.50;99.90;;;;;;5077377;28;20197;-74
2021/12/04 08:29:18;;;;;;;25.50;16.55;;;6.40;99.90;;;;;;5062598;28;20329;-74
2021/12/04 08:31:46;;;;;;;23.10;16.35;;;6.40;99.90;;;;;;5070322;28;20290;-73
2021/12/04 08:34:14;;;;;;;19.88;16.00;;;6.50;99.90;;;;;;5074848;28;20209;-72
2021/12/04 08:36:42;;;;;;;21.52;15.48;;;6.60;99.90;;;;;;5068452;28;20207;-73
2021/12/04 08:39:10;;;;;;;27.75;17.75;;;6.60;99.90;;;;;;5068241;28;20209;-72
2021/12/04 08:41:37;;;;;;;24.45;17.55;;;6.70;99.90;;;;;;5068428;28;20242;-72
2021/12/04 08:44:05;;;;;;;19.50;16.55;;;6.80;99.90;;;;;;5065825;28;20233;-72
2021/12/04 08:46:35;;;;;;;21.75;15.57;;;6.70;99.90;;;;;;5080661;28;20210;-72
2021/12/04 08:49:03;;;;;;;18.25;14.93;;;6.80;99.90;;;;;;5076340;28;20217;-73
2021/12/04 08:51:30;;;;;;;23.73;14.45;;;6.90;99.90;;;;;;5068279;28;20199;-72
2021/12/04 08:53:59;;;;;;;24.75;17.65;;;6.80;99.90;;;;;;5074517;28;20305;-74
2021/12/04 08:56:26;;;;;;;28.23;20.50;;;6.90;99.90;;;;;;5072465;28;20214;-73
2021/12/04 08:58:59;;;;;;;25.98;18.90;;;6.50;99.90;;;;;;5067418;28;20251;-73
2021/12/04 09:01:30;;;;;;;29.25;19.65;;;6.50;99.90;;;;;;5075166;28;20291;-74
2021/12/04 09:04:01;;;;;;;29.77;20.70;;;6.20;99.90;;;;;;5060033;28;20197;-72
2021/12/04 09:06:28;;;;;;;24.75;19.25;;;6.10;99.90;;;;;;5068823;28;20202;-72
2021/12/04 09:08:55;;;;;;;29.40;21.45;;;6.00;99.90;;;;;;5076710;28;20222;-72
2021/12/04 09:11:28;;;;;;;26.65;19.25;;;6.00;99.90;;;;;;5068216;28;20283;-72
2021/12/04 09:13:56;;;;;;;24.75;18.10;;;5.90;99.90;;;;;;5070049;28;20608;-72
2021/12/04 09:16:25;;;;;;;28.75;19.25;;;5.90;99.90;;;;;;5075639;28;20224;-73
2021/12/04 09:18:54;;;;;;;28.38;19.60;;;5.90;99.90;;;;;;5066976;28;20210;-72
2021/12/04 09:21:21;;;;;;;32.17;21.20;;;5.80;99.90;;;;;;5082924;28;20207;-74
2021/12/04 09:23:51;;;;;;;27.55;19.70;;;5.90;99.90;;;;;;5071234;28;20313;-72
2021/12/04 09:26:28;;;;;;;30.60;20.48;;;5.90;99.90;;;;;;5074951;28;20222;-72
2021/12/04 09:29:04;;;;;;;24.38;17.90;;;5.90;99.90;;;;;;5075206;28;20210;-73
2021/12/04 09:31:57;;;;;;;25.17;19.42;;;5.90;99.90;;;;;;5072556;28;20200;-71
2021/12/04 09:34:49;;;;;;;25.80;17.55;;;5.80;99.90;;;;;;5070809;28;20209;-71
2021/12/04 09:40:32;;;;;;;30.08;21.63;;;5.80;99.90;;;;;;5049242;28;20283;-71
2021/12/04 10:02:30;;;;;;;27.60;19.20;;;5.70;99.90;;;;;;5062002;28;20215;-72
2021/12/04 10:13:36;;;;;;;31.42;19.90;;;5.60;99.90;;;;;;5071030;28;20361;-73
2021/12/04 10:16:18;;;;;;;30.92;19.75;;;5.70;99.90;;;;;;5073605;28;20218;-73
2021/12/04 10:19:03;;;;;;;27.67;20.35;;;5.70;99.90;;;;;;5061389;28;20200;-73
2021/12/04 10:32:42;;;;;;;24.52;19.45;;;5.90;99.90;;;;;;5029997;28;20248;-72
2021/12/04 10:35:16;;;;;;;29.13;18.15;;;5.90;99.90;;;;;;5073751;28;20249;-72
2021/12/04 10:37:49;;;;;;;25.13;18.20;;;6.00;99.90;;;;;;5070177;28;20232;-72
2021/12/04 10:40:18;;;;;;;21.02;15.95;;;6.00;99.90;;;;;;5059856;28;20211;-76
2021/12/04 10:42:50;;;;;;;24.20;17.48;;;6.10;99.90;;;;;;5067038;28;20678;-72
2021/12/04 10:45:17;;;;;;;28.25;19.27;;;6.10;99.90;;;;;;5070273;28;20227;-76
2021/12/04 10:47:53;;;;;;;24.38;18.00;;;6.10;99.90;;;;;;5066212;28;20619;-76
2021/12/04 10:50:30;;;;;;;22.65;18.00;;;5.90;99.90;;;;;;5052934;28;20204;-71
2021/12/04 10:52:58;;;;;;;23.65;16.88;;;6.00;99.90;;;;;;5069054;28;20287;-72
2021/12/04 10:55:31;;;;;;;22.63;15.30;;;6.00;99.90;;;;;;5065490;28;20216;-72
2021/12/04 11:01:01;;;;;;;20.30;16.23;;;6.00;99.90;;;;;;5074231;28;20279;-73
2021/12/04 11:03:38;;;;;;;24.02;17.02;;;6.10;99.90;;;;;;5073464;28;20704;-78
2021/12/04 11:25:53;;;;;;;26.08;16.73;;;6.40;99.90;;;;;;5071219;28;20288;-78
2021/12/04 11:28:41;;;;;;;24.38;16.65;;;6.50;99.90;;;;;;5072726;28;20602;-79
2021/12/04 11:36:58;;;;;;;28.98;19.25;;;6.30;99.90;;;;;;5074391;28;20690;-78
2021/12/04 11:39:41;;;;;;;23.15;16.88;;;6.30;99.90;;;;;;5082003;28;20199;-75
2021/12/04 11:42:16;;;;;;;25.65;19.20;;;6.30;99.90;;;;;;5072515;28;20246;-78
2021/12/04 11:44:51;;;;;;;27.45;18.92;;;6.20;99.90;;;;;;5064773;28;20205;-76
2021/12/04 11:47:18;;;;;;;25.08;18.33;;;6.10;99.90;;;;;;5068979;28;20252;-76
2021/12/04 11:49:45;;;;;;;23.67;19.35;;;6.10;99.90;;;;;;5074919;28;20209;-78
2021/12/04 11:52:15;;;;;;;24.30;16.95;;;6.10;99.90;;;;;;5075131;28;20652;-77
2021/12/04 11:54:50;;;;;;;22.23;17.15;;;6.20;99.90;;;;;;5072136;28;20200;-75
2021/12/04 11:57:19;;;;;;;22.77;16.98;;;6.20;99.90;;;;;;5076622;28;20316;-79
2021/12/04 11:59:48;;;;;;;28.88;16.60;;;6.20;99.90;;;;;;5077803;28;20277;-80
2021/12/04 12:02:20;;;;;;;21.48;16.13;;;6.20;99.90;;;;;;5083298;28;20249;-75
2021/12/04 12:04:49;;;;;;;20.95;15.55;;;6.20;99.90;;;;;;5083457;28;20197;-79
2021/12/04 12:07:18;;;;;;;21.38;15.95;;;6.20;99.90;;;;;;5080544;28;20263;-77
2021/12/04 12:09:49;;;;;;;23.88;17.88;;;6.30;99.90;;;;;;5071523;28;20294;-78
2021/12/04 12:12:17;;;;;;;23.65;17.88;;;6.20;99.90;;;;;;5085969;28;20225;-79
2021/12/04 12:14:49;;;;;;;22.58;17.25;;;6.20;99.90;;;;;;5076780;28;20200;-78
2021/12/04 12:17:28;;;;;;;22.15;18.08;;;6.30;99.90;;;;;;5079183;28;20238;-78
2021/12/04 12:19:55;;;;;;;20.35;16.20;;;6.30;99.90;;;;;;5079215;28;20212;-80
2021/12/04 12:22:34;;;;;;;21.45;16.63;;;6.50;99.90;;;;;;5084543;28;20311;-79
2021/12/04 12:25:21;;;;;;;21.52;17.35;;;6.60;99.90;;;;;;5082118;28;20255;-80
2021/12/04 12:27:57;;;;;;;21.88;16.20;;;6.80;99.90;;;;;;5075986;28;20239;-80
2021/12/04 12:33:23;;;;;;;22.23;15.63;;;6.90;99.90;;;;;;5071773;28;20330;-80
2021/12/04 12:36:02;;;;;;;22.15;15.98;;;6.80;99.90;;;;;;5071916;28;20209;-80
2021/12/04 12:38:42;;;;;;;27.55;19.20;;;6.70;99.90;;;;;;5072193;28;20207;-79
2021/12/04 12:41:16;;;;;;;22.52;17.65;;;6.70;99.90;;;;;;5078798;28;20406;-80
2021/12/04 12:43:48;;;;;;;22.83;17.27;;;6.50;99.90;;;;;;5072671;28;20310;-79
2021/12/04 12:46:16;;;;;;;37.08;21.42;;;6.50;99.90;;;;;;5073638;28;20569;-80
2021/12/04 12:48:46;;;;;;;23.67;18.08;;;6.40;99.90;;;;;;5078074;28;20245;-80
2021/12/04 12:51:15;;;;;;;22.80;18.27;;;6.40;99.90;;;;;;5070088;28;20208;-81
2021/12/04 12:53:48;;;;;;;20.15;15.35;;;6.40;99.90;;;;;;5076790;28;20284;-80
2021/12/04 12:56:18;;;;;;;19.23;14.80;;;6.40;99.90;;;;;;5069634;28;20225;-80
2021/12/04 12:58:53;;;;;;;22.83;17.60;;;6.40;99.90;;;;;;5075278;28;20258;-80
2021/12/04 13:12:49;;;;;;;22.52;15.30;;;6.20;99.90;;;;;;5070099;28;20251;-79
2021/12/04 13:15:30;;;;;;;19.10;16.45;;;6.20;99.90;;;;;;5069181;28;20659;-80
2021/12/04 13:18:09;;;;;;;17.88;14.85;;;6.30;99.90;;;;;;5068965;28;20248;-80
2021/12/04 13:20:36;;;;;;;18.10;15.18;;;6.30;99.90;;;;;;5072675;28;20211;-80
2021/12/04 13:23:10;;;;;;;18.17;14.75;;;6.40;99.90;;;;;;5072164;28;20235;-80
2021/12/04 13:25:37;;;;;;;20.33;15.95;;;6.40;99.90;;;;;;5067923;28;20669;-80
2021/12/04 13:30:32;;;;;;;21.25;16.50;;;6.30;99.90;;;;;;5074613;28;20252;-80
2021/12/04 13:33:07;;;;;;;17.77;14.70;;;6.30;99.90;;;;;;5076640;28;20627;-80
2021/12/04 13:35:34;;;;;;;19.80;15.52;;;6.30;99.90;;;;;;5076120;28;20209;-80
2021/12/04 13:38:03;;;;;;;18.75;15.27;;;6.30;99.90;;;;;;5074989;28;20619;-79
2021/12/04 13:40:30;;;;;;;17.95;14.55;;;6.30;99.90;;;;;;5072596;28;20236;-81
2021/12/04 13:42:58;;;;;;;16.75;13.80;;;6.30;99.90;;;;;;5069426;28;20298;-79
2021/12/04 13:45:26;;;;;;;21.17;15.57;;;6.30;99.90;;;;;;5089691;28;20261;-81
2021/12/04 13:47:55;;;;;;;17.83;14.00;;;6.40;99.90;;;;;;5078734;28;20287;-82
2021/12/04 13:53:14;;;;;;;20.63;15.95;;;6.40;99.90;;;;;;5077039;28;20295;-82
2021/12/04 13:55:45;;;;;;;18.77;16.20;;;6.30;99.90;;;;;;5070545;28;20231;-82
2021/12/04 13:58:13;;;;;;;20.70;17.00;;;6.30;99.90;;;;;;5080077;28;20231;-82
2021/12/04 14:00:42;;;;;;;18.63;14.60;;;6.30;99.90;;;;;;5085472;28;20215;-83
2021/12/04 14:03:09;;;;;;;20.05;16.67;;;6.20;99.90;;;;;;5080771;28;20279;-83
2021/12/04 14:05:36;;;;;;;18.88;15.07;;;6.30;99.90;;;;;;5083944;28;20292;-81
2021/12/04 14:08:05;;;;;;;20.77;15.98;;;6.30;99.90;;;;;;5091074;28;20285;-82
2021/12/04 14:10:38;;;;;;;15.45;13.50;;;6.30;99.90;;;;;;5076707;28;20201;-82
2021/12/04 14:13:06;;;;;;;18.92;15.60;;;6.30;99.90;;;;;;5077644;28;20225;-82
2021/12/04 14:15:35;;;;;;;16.50;13.82;;;6.30;99.90;;;;;;5078545;28;20220;-82
2021/12/04 14:18:07;;;;;;;21.63;16.30;;;6.40;99.90;;;;;;5077281;28;20213;-83
2021/12/04 14:20:35;;;;;;;20.05;15.63;;;6.40;99.90;;;;;;5090201;28;20201;-82
2021/12/04 14:23:03;;;;;;;23.20;16.65;;;6.40;99.90;;;;;;5068028;28;20227;-81
2021/12/04 14:25:30;;;;;;;18.75;16.25;;;6.40;99.90;;;;;;5073363;28;20297;-77
2021/12/04 14:28:00;;;;;;;18.20;14.63;;;6.40;99.90;;;;;;5065359;28;20194;-78
2021/12/04 14:30:32;;;;;;;17.17;15.20;;;6.30;99.90;;;;;;5069356;28;20209;-78
2021/12/04 14:33:01;;;;;;;18.30;14.40;;;6.30;99.90;;;;;;5075747;28;20726;-79
2021/12/04 14:35:32;;;;;;;22.35;15.25;;;6.30;99.90;;;;;;5063922;28;20235;-78
2021/12/04 14:38:00;;;;;;;15.30;13.70;;;6.40;99.90;;;;;;5066481;28;20303;-80
2021/12/04 14:40:32;;;;;;;24.20;18.83;;;6.40;99.90;;;;;;5059126;28;20205;-78
2021/12/04 14:43:00;;;;;;;17.83;15.05;;;6.30;99.90;;;;;;5062308;28;20597;-78
2021/12/04 14:45:31;;;;;;;21.02;17.42;;;6.30;99.90;;;;;;5067625;28;20204;-75
2021/12/04 14:48:07;;;;;;;24.48;17.30;;;6.30;99.90;;;;;;5080716;28;20205;-77
2021/12/04 14:50:39;;;;;;;21.17;16.23;;;6.30;99.90;;;;;;5070663;28;20212;-77
2021/12/04 14:53:08;;;;;;;28.58;19.85;;;6.30;99.90;;;;;;5081484;28;20291;-76
2021/12/04 14:55:38;;;;;;;21.70;16.83;;;6.20;99.90;;;;;;5080630;28;20196;-75
2021/12/04 14:58:08;;;;;;;18.02;14.05;;;6.30;99.90;;;;;;5075520;28;20215;-77
2021/12/04 15:00:38;;;;;;;18.70;15.35;;;6.30;99.90;;;;;;5073134;28;20241;-77
2021/12/04 15:03:09;;;;;;;29.15;17.13;;;6.30;99.90;;;;;;5063880;28;20229;-77